createdAt,value
2023-01-23T00:00:15.403Z,2.20
2023-01-23T00:03:18.639Z,2.20
2023-01-23T00:06:22.093Z,2.20
2023-01-23T00:09:24.806Z,2.30
2023-01-23T00:12:28.856Z,2.30
2023-01-23T00:15:32.989Z,2.30
2023-01-23T00:18:35.819Z,2.20
2023-01-23T00:21:39.355Z,2.30
2023-01-23T00:24:42.296Z,2.30
2023-01-23T00:27:46.359Z,2.20
2023-01-23T00:30:49.175Z,2.20
2023-01-23T00:33:55.485Z,2.30
2023-01-23T00:36:58.249Z,2.30
2023-01-23T00:40:00.992Z,2.30
2023-01-23T00:43:05.070Z,2.30
2023-01-23T00:46:08.596Z,2.30
2023-01-23T00:49:11.390Z,2.30
2023-01-23T00:52:14.121Z,2.30
2023-01-23T00:55:17.022Z,2.30
2023-01-23T00:58:21.145Z,2.30
2023-01-23T01:01:24.035Z,2.20
2023-01-23T01:04:26.863Z,2.20
2023-01-23T01:07:29.659Z,2.20
2023-01-23T01:10:32.974Z,2.20
2023-01-23T01:13:37.568Z,2.20
2023-01-23T01:16:45.147Z,2.10
2023-01-23T01:19:47.921Z,2.10
2023-01-23T01:22:51.132Z,2.00
2023-01-23T01:25:54.162Z,2.00
2023-01-23T01:28:58.572Z,2.00
2023-01-23T01:32:01.377Z,2.00
2023-01-23T01:35:04.465Z,2.00
2023-01-23T01:38:08.792Z,2.00
2023-01-23T01:41:13.253Z,1.90
2023-01-23T01:44:19.681Z,1.90
2023-01-23T01:47:22.568Z,1.90
2023-01-23T01:50:26.366Z,1.90
2023-01-23T01:53:32.310Z,1.90
2023-01-23T01:56:39.394Z,1.90
2023-01-23T01:59:48.391Z,2.00
2023-01-23T02:02:54.388Z,2.00
2023-01-23T02:05:57.514Z,2.00
2023-01-23T02:09:05.773Z,1.90
2023-01-23T02:12:08.705Z,2.00
2023-01-23T02:15:12.960Z,2.10
2023-01-23T02:18:16.079Z,2.10
2023-01-23T02:21:25.371Z,2.10
2023-01-23T02:24:34.840Z,2.20
2023-01-23T02:27:38.941Z,2.10
2023-01-23T02:30:42.773Z,2.10
2023-01-23T02:33:51.884Z,2.10
2023-01-23T02:36:54.885Z,2.10
2023-01-23T02:39:57.632Z,2.10
2023-01-23T02:43:01.992Z,2.20
2023-01-23T02:46:05.144Z,2.20
2023-01-23T02:49:08.245Z,2.10
2023-01-23T02:52:11.047Z,2.20
2023-01-23T02:55:13.819Z,2.10
2023-01-23T02:58:35.725Z,2.10
2023-01-23T03:01:38.489Z,2.20
2023-01-23T03:04:41.251Z,2.10
2023-01-23T03:07:44.124Z,2.10
2023-01-23T03:10:46.850Z,2.20
2023-01-23T03:13:50.893Z,2.10
2023-01-23T03:16:55.135Z,2.10
2023-01-23T03:19:57.913Z,2.10
2023-01-23T03:23:00.663Z,2.20
2023-01-23T03:26:03.386Z,2.20
2023-01-23T03:29:25.260Z,2.20
2023-01-23T03:32:29.320Z,2.20
2023-01-23T03:35:32.705Z,2.20
2023-01-23T03:38:35.451Z,2.20
2023-01-23T03:41:39.114Z,2.20
2023-01-23T03:44:43.391Z,2.20
2023-01-23T03:47:46.121Z,2.20
2023-01-23T03:50:48.874Z,2.20
2023-01-23T03:53:51.638Z,2.20
2023-01-23T03:56:54.976Z,2.20
2023-01-23T03:59:59.044Z,2.20
2023-01-23T04:03:01.910Z,2.20
2023-01-23T04:06:04.932Z,2.20
2023-01-23T04:09:07.680Z,2.20
2023-01-23T04:12:10.401Z,2.20
2023-01-23T04:15:14.511Z,2.20
2023-01-23T04:18:17.285Z,2.30
2023-01-23T04:21:20.017Z,2.20
2023-01-23T04:24:22.769Z,2.30
2023-01-23T04:27:26.133Z,2.20
2023-01-23T04:30:30.303Z,2.30
2023-01-23T04:33:33.337Z,2.30
2023-01-23T04:36:36.732Z,2.30
2023-01-23T04:39:39.492Z,2.30
2023-01-23T04:42:42.257Z,2.20
2023-01-23T04:45:46.591Z,2.30
2023-01-23T04:48:49.425Z,2.20
2023-01-23T04:51:53.092Z,2.30
2023-01-23T04:54:55.946Z,2.30
2023-01-23T04:57:58.690Z,2.30
2023-01-23T05:01:07.296Z,2.30
2023-01-23T05:04:10.114Z,2.30
2023-01-23T05:07:13.062Z,2.30
2023-01-23T05:10:17.238Z,2.30
2023-01-23T05:13:20.002Z,2.30
2023-01-23T05:16:24.213Z,2.40
2023-01-23T05:19:26.977Z,2.40
2023-01-23T05:22:29.767Z,2.40
2023-01-23T05:25:32.546Z,2.40
2023-01-23T05:28:35.326Z,2.40
2023-01-23T05:31:39.487Z,2.40
2023-01-23T05:34:42.307Z,2.40
2023-01-23T05:37:48.724Z,2.40
2023-01-23T05:40:51.803Z,2.40
2023-01-23T05:43:54.551Z,2.40
2023-01-23T05:46:58.652Z,2.40
2023-01-23T05:50:01.592Z,2.40
2023-01-23T05:53:04.575Z,2.50
2023-01-23T05:56:08.320Z,2.50
2023-01-23T05:59:11.266Z,2.50
2023-01-23T06:02:16.646Z,2.50
2023-01-23T06:05:19.436Z,2.50
2023-01-23T06:08:22.281Z,2.50
2023-01-23T06:11:25.039Z,2.50
2023-01-23T06:14:27.908Z,2.50
2023-01-23T06:17:32.065Z,2.50
2023-01-23T06:20:34.884Z,2.50
2023-01-23T06:23:37.667Z,2.40
2023-01-23T06:26:40.412Z,2.40
2023-01-23T06:29:43.152Z,2.40
2023-01-23T06:32:47.219Z,2.50
2023-01-23T06:35:49.947Z,2.50
2023-01-23T06:38:53.202Z,2.50
2023-01-23T06:41:56.128Z,2.40
2023-01-23T06:44:58.872Z,2.50
2023-01-23T06:48:02.970Z,2.50
2023-01-23T06:51:06.937Z,2.50
2023-01-23T06:54:09.772Z,2.50
2023-01-23T06:57:13.001Z,2.50
2023-01-23T07:00:16.670Z,2.50
2023-01-23T07:03:20.754Z,2.60
2023-01-23T07:06:23.501Z,2.50
2023-01-23T07:09:26.256Z,2.50
2023-01-23T07:12:28.991Z,2.50
2023-01-23T07:15:31.762Z,2.50
2023-01-23T07:18:36.019Z,2.50
2023-01-23T07:21:38.834Z,2.50
2023-01-23T07:24:41.575Z,2.50
2023-01-23T07:27:44.334Z,2.50
2023-01-23T07:30:48.124Z,2.50
2023-01-23T07:33:52.412Z,2.50
2023-01-23T07:36:55.148Z,2.40
2023-01-23T07:39:57.879Z,2.40
2023-01-23T07:43:00.616Z,2.50
2023-01-23T07:46:03.946Z,2.50
2023-01-23T07:49:08.000Z,2.50
2023-01-23T07:52:11.338Z,2.50
2023-01-23T07:55:14.154Z,2.50
2023-01-23T07:58:16.897Z,2.60
2023-01-23T08:01:20.215Z,2.60
2023-01-23T08:04:24.349Z,2.60
2023-01-23T08:07:27.191Z,2.60
2023-01-23T08:10:30.030Z,2.60
2023-01-23T08:13:33.170Z,2.60
2023-01-23T08:16:35.946Z,2.60
2023-01-23T08:19:40.155Z,2.60
2023-01-23T08:22:42.919Z,2.50
2023-01-23T08:25:45.648Z,2.60
2023-01-23T08:28:48.404Z,2.60
2023-01-23T08:31:54.963Z,2.70
2023-01-23T08:34:59.653Z,2.70
2023-01-23T08:38:03.635Z,2.60
2023-01-23T08:41:07.081Z,2.60
2023-01-23T08:44:09.833Z,2.70
2023-01-23T08:47:12.610Z,2.60
2023-01-23T08:50:16.952Z,2.70
2023-01-23T08:53:19.805Z,2.70
2023-01-23T08:56:24.139Z,2.80
2023-01-23T08:59:27.063Z,2.80
2023-01-23T09:02:29.856Z,2.80
2023-01-23T09:05:34.281Z,2.90
2023-01-23T09:08:37.096Z,2.90
2023-01-23T09:11:39.838Z,2.90
2023-01-23T09:14:42.620Z,3.00
2023-01-23T09:17:45.572Z,2.90
2023-01-23T09:20:49.897Z,3.00
2023-01-23T09:23:52.644Z,3.00
2023-01-23T09:26:55.565Z,3.10
2023-01-23T09:29:58.306Z,3.00
2023-01-23T09:33:01.551Z,3.10
2023-01-23T09:36:06.552Z,3.20
2023-01-23T09:39:09.840Z,3.20
2023-01-23T09:42:18.952Z,3.20
2023-01-23T09:45:25.330Z,3.30
2023-01-23T09:48:32.754Z,3.20
2023-01-23T09:51:52.634Z,3.30
2023-01-23T09:54:58.966Z,3.30
2023-01-23T09:58:04.313Z,3.40
2023-01-23T10:01:10.323Z,3.40
2023-01-23T10:04:14.807Z,3.50
2023-01-23T10:07:42.477Z,3.40
2023-01-23T10:11:05.898Z,3.40
2023-01-23T10:14:23.062Z,3.40
2023-01-23T10:17:33.482Z,3.50
2023-01-23T10:20:51.741Z,3.40
2023-01-23T10:24:21.399Z,3.50
2023-01-23T10:27:32.024Z,3.50
2023-01-23T10:30:38.482Z,3.50
2023-01-23T10:33:47.969Z,3.50
2023-01-23T10:37:03.107Z,3.60
2023-01-23T10:40:14.676Z,3.60
2023-01-23T10:43:20.133Z,3.60
2023-01-23T10:46:28.917Z,3.50
2023-01-23T10:49:35.121Z,3.60
2023-01-23T10:52:39.542Z,3.70
2023-01-23T10:55:46.364Z,3.70
2023-01-23T10:58:49.785Z,3.50
2023-01-23T11:02:02.099Z,3.60
2023-01-23T11:05:27.476Z,3.60
2023-01-23T11:08:32.669Z,3.50
2023-01-23T11:11:36.801Z,3.40
2023-01-23T11:14:39.785Z,3.50
2023-01-23T11:17:43.940Z,3.30
2023-01-23T11:20:55.677Z,3.40
2023-01-23T11:24:10.466Z,3.40
2023-01-23T11:27:26.297Z,3.50
2023-01-23T11:30:39.389Z,3.60
2023-01-23T11:33:47.768Z,3.60
2023-01-23T11:36:55.764Z,3.80
2023-01-23T11:40:03.824Z,3.90
2023-01-23T11:43:13.930Z,3.90
2023-01-23T11:46:32.741Z,3.90
2023-01-23T11:49:58.629Z,3.90
2023-01-23T11:53:06.393Z,3.90
2023-01-23T11:56:52.970Z,3.80
2023-01-23T12:00:17.399Z,3.80
2023-01-23T12:03:44.723Z,3.90
2023-01-23T12:07:10.714Z,4.00
2023-01-23T12:10:23.522Z,4.10
2023-01-23T12:13:42.991Z,4.00
2023-01-23T12:16:56.613Z,4.00
2023-01-23T12:20:33.557Z,4.00
2023-01-23T12:23:49.693Z,4.10
2023-01-23T12:27:01.693Z,4.10
2023-01-23T12:30:25.816Z,4.10
2023-01-23T12:33:47.505Z,4.10
2023-01-23T12:37:19.376Z,4.00
2023-01-23T12:40:34.355Z,3.90
2023-01-23T12:43:42.349Z,3.90
2023-01-23T12:46:51.988Z,3.90
2023-01-23T12:50:00.444Z,3.90
2023-01-23T12:53:07.767Z,4.00
2023-01-23T12:56:15.623Z,4.10
2023-01-23T12:59:25.949Z,3.80
2023-01-23T13:02:38.919Z,3.90
2023-01-23T13:05:48.590Z,3.90
2023-01-23T13:09:02.759Z,4.00
2023-01-23T13:12:20.372Z,4.00
2023-01-23T13:15:40.109Z,4.10
2023-01-23T13:19:11.771Z,4.10
2023-01-23T13:22:29.110Z,4.10
2023-01-23T13:25:38.083Z,4.20
2023-01-23T13:28:45.631Z,4.30
2023-01-23T13:31:51.685Z,4.40
2023-01-23T13:34:54.486Z,4.40
2023-01-23T13:37:59.926Z,4.40
2023-01-23T13:41:31.597Z,4.40
2023-01-23T13:44:42.344Z,4.40
2023-01-23T14:22:46.817Z,4.30
2023-01-23T14:25:49.865Z,4.30
2023-01-23T14:28:54.425Z,4.40
2023-01-23T14:31:58.554Z,4.40
2023-01-23T14:35:01.507Z,4.40
2023-01-23T14:38:07.818Z,4.50
2023-01-23T14:41:10.746Z,4.50
2023-01-23T14:44:20.707Z,4.50
2023-01-23T14:47:34.032Z,4.60
2023-01-23T14:50:37.752Z,4.50
2023-01-23T14:53:41.687Z,4.50
2023-01-23T14:56:46.519Z,4.50
2023-01-23T14:59:51.296Z,4.50
2023-01-23T15:02:56.253Z,4.50
2023-01-23T15:05:59.401Z,4.50
2023-01-23T15:09:13.583Z,4.50
2023-01-23T15:12:18.787Z,4.50
2023-01-23T15:15:23.906Z,4.50
2023-01-23T15:18:30.441Z,4.50
2023-01-23T15:21:36.380Z,4.50
2023-01-23T15:24:39.130Z,4.50
2023-01-23T15:27:41.889Z,4.40
2023-01-23T15:30:48.339Z,4.50
2023-01-23T15:33:52.849Z,4.40
2023-01-23T15:37:05.281Z,4.50
2023-01-23T15:40:17.968Z,4.50
2023-01-23T15:43:20.756Z,4.50
2023-01-23T15:46:23.540Z,4.30
2023-01-23T15:49:28.047Z,4.30
2023-01-23T15:52:45.780Z,4.20
2023-01-23T15:55:48.657Z,4.30
2023-01-23T15:58:51.480Z,4.40
2023-01-23T16:01:54.210Z,4.50
2023-01-23T16:04:58.809Z,4.50
2023-01-23T16:08:03.220Z,4.40
2023-01-23T16:11:06.256Z,4.50
2023-01-23T16:14:15.817Z,4.50
2023-01-23T16:17:18.549Z,4.50
2023-01-23T16:20:24.869Z,4.50
2023-01-23T16:23:31.276Z,4.50
2023-01-23T16:26:39.440Z,4.60
2023-01-23T16:29:44.041Z,4.50
2023-01-23T16:32:47.362Z,4.60
2023-01-23T16:35:52.711Z,4.60
2023-01-23T16:38:57.032Z,4.60
2023-01-23T16:42:00.699Z,4.60
2023-01-23T16:45:03.578Z,4.40
2023-01-23T16:48:09.168Z,4.50
2023-01-23T16:51:21.641Z,4.50
2023-01-23T16:54:25.982Z,4.50
2023-01-23T16:57:28.776Z,4.60
2023-01-23T17:00:35.276Z,4.60
2023-01-23T17:03:40.623Z,4.60
2023-01-23T17:06:44.703Z,4.60
2023-01-23T17:09:49.170Z,4.50
2023-01-23T17:12:55.459Z,4.50
2023-01-23T17:15:59.020Z,4.60
2023-01-23T17:19:07.544Z,4.50
2023-01-23T17:22:20.815Z,4.60
2023-01-23T17:25:25.747Z,4.60
2023-01-23T17:28:28.808Z,4.60
2023-01-23T17:31:32.540Z,4.60
2023-01-23T17:34:49.396Z,4.60
2023-01-23T17:37:55.119Z,4.60
2023-01-23T17:40:57.904Z,4.60
2023-01-23T17:44:01.142Z,4.50
2023-01-23T17:47:03.935Z,4.50
2023-01-23T17:50:07.787Z,4.60
2023-01-23T17:53:13.411Z,4.50
2023-01-23T17:56:16.612Z,4.60
2023-01-23T17:59:19.451Z,4.40
2023-01-23T18:02:26.586Z,4.50
2023-01-23T18:05:29.562Z,4.50
2023-01-23T18:08:33.628Z,4.50
2023-01-23T18:11:37.997Z,4.50
2023-01-23T18:14:47.854Z,4.50
2023-01-23T18:17:56.957Z,4.60
2023-01-23T18:21:01.411Z,4.60
2023-01-23T18:24:06.400Z,4.60
2023-01-23T18:27:20.506Z,4.60
2023-01-23T18:30:45.960Z,4.50
2023-01-23T18:33:58.967Z,4.40
2023-01-23T18:37:14.136Z,4.50
2023-01-23T18:40:24.670Z,4.50
2023-01-23T18:43:35.816Z,4.60
2023-01-23T18:46:38.886Z,4.60
2023-01-23T18:49:42.899Z,4.60
2023-01-23T18:52:55.005Z,4.50
2023-01-23T18:56:14.115Z,4.50
2023-01-23T18:59:23.779Z,4.50
2023-01-23T19:02:34.254Z,4.50
2023-01-23T19:05:37.760Z,4.50
2023-01-23T19:08:40.937Z,4.50
2023-01-23T19:11:58.645Z,4.50
2023-01-23T19:15:19.813Z,4.40
2023-01-23T19:18:42.682Z,4.40
2023-01-23T19:21:47.770Z,4.50
2023-01-23T19:24:50.997Z,4.50
2023-01-23T19:27:57.585Z,4.50
2023-01-23T19:31:00.895Z,4.50
2023-01-23T19:34:04.879Z,4.40
2023-01-23T19:37:08.016Z,4.30
2023-01-23T19:40:12.924Z,4.30
2023-01-23T19:43:17.826Z,4.40
2023-01-23T19:46:22.093Z,4.30
2023-01-23T19:49:25.659Z,4.40
2023-01-23T19:52:28.404Z,4.40
2023-01-23T19:55:33.464Z,4.40
2023-01-23T19:58:38.014Z,4.50
2023-01-23T20:01:43.458Z,4.50
2023-01-23T20:04:46.584Z,4.40
2023-01-23T20:07:50.313Z,4.40
2023-01-23T20:10:53.176Z,4.50
2023-01-23T20:13:57.269Z,4.20
2023-01-23T20:17:00.385Z,4.30
2023-01-23T20:20:03.406Z,4.40
2023-01-23T20:23:06.173Z,4.40
2023-01-23T20:26:09.292Z,4.50
2023-01-23T20:29:13.546Z,4.40
2023-01-23T20:32:16.371Z,4.50
2023-01-23T20:35:19.268Z,4.50
2023-01-23T20:38:22.427Z,4.50
2023-01-23T20:41:25.194Z,4.50
2023-01-23T20:44:29.290Z,4.60
2023-01-23T20:47:32.070Z,4.60
2023-01-23T20:50:34.860Z,4.60
2023-01-23T20:53:39.798Z,4.60
2023-01-23T20:56:43.848Z,4.50
2023-01-23T20:59:47.622Z,4.60
2023-01-23T21:02:50.435Z,4.50
2023-01-23T21:05:53.221Z,4.50
2023-01-23T21:08:58.393Z,4.50
2023-01-23T21:12:01.325Z,4.50
2023-01-23T21:15:06.222Z,4.50
2023-01-23T21:18:09.140Z,4.50
2023-01-23T21:21:14.970Z,4.50
2023-01-23T21:24:17.905Z,4.50
2023-01-23T21:27:23.433Z,4.50
2023-01-23T21:30:28.672Z,4.50
2023-01-23T21:33:31.442Z,4.50
2023-01-23T21:36:34.733Z,4.50
2023-01-23T21:39:37.593Z,4.60
2023-01-23T21:42:40.356Z,4.40
2023-01-23T21:45:44.416Z,4.40
2023-01-23T21:48:47.191Z,4.50
2023-01-23T21:51:49.950Z,4.50
2023-01-23T21:54:53.561Z,4.50
2023-01-23T21:57:57.060Z,4.60
2023-01-23T22:01:19.961Z,4.70
2023-01-23T22:04:23.417Z,4.70
2023-01-23T22:07:26.177Z,4.60
2023-01-23T22:10:28.968Z,4.60
2023-01-23T22:13:31.831Z,4.70
2023-01-23T22:16:48.071Z,4.60
2023-01-23T22:19:51.754Z,4.60
2023-01-23T22:22:54.698Z,4.60
2023-01-23T22:26:00.145Z,4.60
2023-01-23T22:29:02.913Z,4.60
2023-01-23T22:32:07.246Z,4.70
2023-01-23T22:35:10.991Z,4.50
2023-01-23T22:38:15.404Z,4.50
2023-01-23T22:41:18.215Z,4.50
2023-01-23T22:44:20.967Z,4.50
2023-01-23T22:47:25.205Z,4.60
2023-01-23T22:50:29.444Z,4.70
2023-01-23T22:53:32.652Z,4.70
2023-01-23T22:56:35.438Z,4.60
2023-01-23T22:59:39.084Z,4.70
2023-01-23T23:02:43.435Z,4.70
2023-01-23T23:05:46.261Z,4.60
2023-01-23T23:08:49.332Z,4.60
2023-01-23T23:11:52.723Z,4.60
2023-01-23T23:14:55.537Z,4.70
2023-01-23T23:17:59.616Z,4.60
2023-01-23T23:21:03.843Z,4.60
2023-01-23T23:24:09.298Z,4.60
2023-01-23T23:27:12.194Z,4.60
2023-01-23T23:30:15.802Z,4.60
2023-01-23T23:33:20.546Z,4.60
2023-01-23T23:36:23.378Z,4.70
2023-01-23T23:39:26.637Z,4.60
2023-01-23T23:42:29.384Z,4.60
2023-01-23T23:45:32.239Z,4.60
2023-01-23T23:48:37.459Z,4.70
2023-01-23T23:51:40.501Z,4.60
2023-01-23T23:54:43.260Z,4.60
2023-01-23T23:57:45.997Z,4.60
